Time;durP1;ratioP1;P1;durP2;ratioP2;P2;SDS_P1;SDS_P2;PMS_P1;PMS_P2;Temp;Humidity;BMP_temperature;BMP_pressure;BME280_temperature;BME280_humidity;BME280_pressure;Samples;Min_cycle;Max_cycle;Signal;HPM_P1;HPM_P2
2024/04/13 00:01:49;;;;;;;6.20;3.00;;;;;;;16.28;65.36;101548.63;111509;1206;100318;-64
2024/04/13 00:04:15;;;;;;;6.70;3.10;;;;;;;16.28;65.45;101549.35;111541;1212;101265;-65
2024/04/13 00:06:40;;;;;;;6.10;3.00;;;;;;;16.28;65.24;101554.96;111522;1207;139475;-65
2024/04/13 00:09:06;;;;;;;6.60;3.00;;;;;;;16.27;65.37;101557.36;111571;1206;100302;-65
2024/04/13 00:11:33;;;;;;;7.50;3.80;;;;;;;16.25;65.55;101553.83;111393;1206;139577;-65
2024/04/13 00:13:58;;;;;;;5.70;3.10;;;;;;;16.26;65.67;101549.30;111560;1206;114555;-64
2024/04/13 00:16:23;;;;;;;5.10;2.90;;;;;;;16.26;65.73;101549.99;111582;1212;100293;-64
2024/04/13 00:18:48;;;;;;;6.40;2.90;;;;;;;16.26;65.95;101550.33;111489;1207;139162;-64
2024/04/13 00:21:15;;;;;;;8.60;3.60;;;;;;;16.26;65.88;101553.75;111540;1211;100341;-64
2024/04/13 00:23:42;;;;;;;11.00;3.90;;;;;;;16.24;65.75;101546.81;111557;1208;139275;-65
2024/04/13 00:26:08;;;;;;;9.10;3.50;;;;;;;16.19;65.78;101543.88;111576;1206;100369;-65
2024/04/13 00:28:33;;;;;;;6.20;3.20;;;;;;;16.14;65.96;101537.27;111639;1208;100620;-64
2024/04/13 00:30:59;;;;;;;6.20;3.40;;;;;;;16.10;66.05;101537.30;111480;1206;139730;-65
2024/04/13 00:33:24;;;;;;;8.80;3.10;;;;;;;16.06;66.07;101540.23;111611;1216;100184;-65
2024/04/13 00:35:50;;;;;;;4.40;3.10;;;;;;;16.01;66.12;101537.23;111375;1206;139727;-65
2024/04/13 00:38:16;;;;;;;7.00;3.30;;;;;;;16.00;66.21;101543.06;111518;1211;100296;-64
2024/04/13 00:40:42;;;;;;;6.00;3.20;;;;;;;15.97;66.22;101542.67;111529;1212;100339;-64
2024/04/13 00:43:11;;;;;;;6.90;2.90;;;;;;;15.95;66.41;101549.07;111485;1209;140178;-65
2024/04/13 00:45:43;;;;;;;5.10;2.90;;;;;;;15.95;66.46;101547.67;111611;1211;107464;-64
2024/04/13 00:48:14;;;;;;;7.50;3.20;;;;;;;15.92;66.46;101548.14;111382;1206;139173;-65
2024/04/13 00:50:42;;;;;;;;;;;;;;;15.88;66.53;101549.06;111588;1211;100225;-65
2024/04/13 00:53:11;;;;;;;7.10;3.30;;;;;;;15.82;66.48;101544.00;111533;1212;114273;-65
2024/04/13 00:55:40;;;;;;;10.20;3.60;;;;;;;15.77;66.59;101546.59;111679;1211;100333;-64
2024/04/13 00:58:05;;;;;;;5.70;3.00;;;;;;;15.70;66.73;101545.86;111612;1212;108540;-64
2024/04/13 01:00:32;;;;;;;8.10;3.40;;;;;;;15.65;66.81;101544.52;111452;1213;139018;-64
2024/04/13 01:03:00;;;;;;;7.80;3.30;;;;;;;15.60;66.85;101543.32;111566;1207;100292;-64
2024/04/13 01:05:26;;;;;;;9.50;2.90;;;;;;;15.55;67.01;101540.27;111379;1206;140046;-65
2024/04/13 01:07:52;;;;;;;4.40;2.70;;;;;;;15.54;67.27;101535.82;111604;1206;101340;-65
2024/04/13 01:10:17;;;;;;;7.50;3.20;;;;;;;15.55;67.26;101536.70;111619;1206;100315;-65
2024/04/13 01:12:43;;;;;;;5.80;2.80;;;;;;;15.56;67.24;101535.77;111447;1206;139508;-64
2024/04/13 01:15:09;;;;;;;7.20;3.00;;;;;;;15.56;67.30;101530.71;111455;1212;100418;-65
2024/04/13 01:17:36;;;;;;;9.10;3.90;;;;;;;15.55;67.30;101531.09;111492;1219;139289;-64
2024/04/13 01:20:02;;;;;;;8.20;3.90;;;;;;;15.54;67.45;101533.67;111489;1212;100658;-64
2024/04/13 01:22:27;;;;;;;6.00;3.60;;;;;;;15.51;67.50;101538.52;111532;1211;100404;-64
2024/04/13 01:24:53;;;;;;;7.00;3.70;;;;;;;15.47;67.61;101535.11;111556;1212;139192;-64
2024/04/13 01:27:18;;;;;;;7.60;3.40;;;;;;;15.45;67.69;101527.29;111488;1212;99207;-64
2024/04/13 01:29:43;;;;;;;6.30;3.40;;;;;;;15.43;67.71;101529.04;111493;1206;139557;-64
2024/04/13 01:32:09;;;;;;;4.70;3.60;;;;;;;15.40;67.72;101530.43;111537;1206;101467;-65
2024/04/13 01:34:34;;;;;;;6.80;3.80;;;;;;;15.38;67.93;101529.79;111605;1219;100356;-64
2024/04/13 01:36:59;;;;;;;8.10;4.10;;;;;;;15.35;67.95;101537.85;111517;1212;139530;-65
2024/04/13 01:39:24;;;;;;;6.40;3.60;;;;;;;15.31;67.99;101539.17;111565;1212;100311;-65
2024/04/13 01:41:54;;;;;;;6.90;3.60;;;;;;;15.26;68.17;101541.92;111415;1212;139908;-64
2024/04/13 01:44:19;;;;;;;8.30;3.70;;;;;;;15.25;68.26;101553.66;111507;1211;100334;-65
2024/04/13 01:46:45;;;;;;;6.00;4.10;;;;;;;15.21;68.26;101558.70;111575;1206;100289;-64
2024/04/13 01:49:10;;;;;;;4.90;3.50;;;;;;;15.17;68.35;101551.73;111496;1212;139330;-65
2024/04/13 01:51:36;;;;;;;13.90;4.40;;;;;;;15.13;68.44;101552.98;111592;1218;100455;-65
2024/04/13 01:54:02;;;;;;;7.20;3.80;;;;;;;15.10;68.53;101548.81;111507;1206;139765;-65
2024/04/13 01:56:28;;;;;;;5.30;3.50;;;;;;;15.08;68.62;101544.39;111553;1206;113828;-64
2024/04/13 01:58:54;;;;;;;7.40;4.00;;;;;;;15.06;68.71;101541.27;111600;1212;100373;-65
2024/04/13 02:01:20;;;;;;;4.80;3.50;;;;;;;15.03;68.76;101542.86;111420;1206;139241;-65
2024/04/13 02:03:49;;;;;;;6.80;4.10;;;;;;;14.99;68.80;101543.20;111602;1206;100337;-64
2024/04/13 02:06:14;;;;;;;8.30;4.10;;;;;;;14.93;68.95;101543.66;111449;1211;140415;-64
2024/04/13 02:08:39;;;;;;;8.20;3.60;;;;;;;14.91;69.08;101545.55;111625;1207;100315;-65
2024/04/13 02:11:06;;;;;;;6.40;3.70;;;;;;;14.88;69.15;101544.63;111635;1206;99301;-65
2024/04/13 02:13:32;;;;;;;9.60;4.90;;;;;;;14.85;69.33;101537.75;111480;1212;139605;-64
2024/04/13 02:15:57;;;;;;;5.50;3.90;;;;;;;14.83;69.31;101531.02;111599;1206;101715;-64
2024/04/13 02:18:22;;;;;;;5.70;4.50;;;;;;;14.79;69.42;101529.76;111495;1212;141349;-64
2024/04/13 02:20:47;;;;;;;5.20;4.00;;;;;;;14.75;69.43;101532.49;111583;1211;100360;-65
2024/04/13 02:23:13;;;;;;;10.90;4.80;;;;;;;14.69;69.65;101532.94;111447;1206;139340;-65
2024/04/13 02:25:46;;;;;;;4.80;4.30;;;;;;;14.68;69.75;101535.48;111558;1206;101304;-65
2024/04/13 02:28:14;;;;;;;8.10;4.50;;;;;;;14.66;69.84;101535.41;111608;1212;107460;-64
2024/04/13 02:30:39;;;;;;;8.20;5.60;;;;;;;14.64;70.07;101537.66;111394;1212;139164;-64
2024/04/13 02:33:06;;;;;;;5.90;4.40;;;;;;;14.63;70.09;101537.89;111582;1206;100433;-64
2024/04/13 02:35:31;;;;;;;5.70;4.50;;;;;;;14.64;70.27;101540.73;111420;1212;139218;-65
2024/04/13 02:37:56;;;;;;;8.10;5.30;;;;;;;14.64;70.24;101543.80;111562;1212;100308;-65
2024/04/13 02:40:23;;;;;;;11.00;4.50;;;;;;;14.62;70.41;101539.74;111559;1206;100357;-65
2024/04/13 02:42:56;;;;;;;8.20;4.60;;;;;;;14.61;70.49;101540.49;111552;1206;139513;-64
2024/04/13 02:45:21;;;;;;;8.30;5.00;;;;;;;14.59;70.58;101540.41;111578;1210;100445;-65
2024/04/13 02:47:49;;;;;;;11.50;5.10;;;;;;;14.57;70.69;101535.98;111401;1206;139286;-65
2024/04/13 02:50:16;;;;;;;5.60;4.20;;;;;;;14.57;70.68;101529.70;111374;1207;100352;-65
2024/04/13 02:52:41;;;;;;;8.60;4.50;;;;;;;14.56;70.90;101528.66;111930;1206;100406;-65
2024/04/13 02:55:07;;;;;;;7.90;5.30;;;;;;;14.54;70.86;101531.98;111338;1206;139074;-65
2024/04/13 02:57:33;;;;;;;10.90;5.30;;;;;;;14.51;70.97;101532.16;111508;1211;103114;-64
2024/04/13 02:59:58;;;;;;;7.10;4.60;;;;;;;14.47;71.02;101533.22;111707;1211;139446;-65
2024/04/13 03:02:24;;;;;;;10.50;5.30;;;;;;;14.44;71.19;101535.89;111466;1206;100433;-64
2024/04/13 03:05:09;;;;;;;6.30;4.70;;;;;;;14.44;71.30;101534.80;111568;1211;100311;-64
2024/04/13 03:07:35;;;;;;;7.60;4.50;;;;;;;14.44;71.42;101529.02;111374;1212;139013;-65
2024/04/13 03:10:00;;;;;;;7.90;4.90;;;;;;;14.42;71.42;101531.13;111497;1206;101557;-64
2024/04/13 03:12:25;;;;;;;7.20;5.00;;;;;;;14.37;71.56;101529.50;111563;1212;139153;-65
2024/04/13 03:14:51;;;;;;;8.20;5.10;;;;;;;14.36;71.61;101528.50;111568;1206;100347;-64
2024/04/13 03:17:16;;;;;;;9.20;4.80;;;;;;;14.36;71.71;101527.02;111454;1219;139458;-64
2024/04/13 03:19:41;;;;;;;8.40;5.00;;;;;;;14.36;71.79;101527.42;111603;1206;100437;-65
2024/04/13 03:22:07;;;;;;;6.30;4.90;;;;;;;14.36;71.87;101531.73;111532;1206;100358;-65
2024/04/13 03:24:35;;;;;;;7.70;5.20;;;;;;;14.36;71.97;101535.67;111518;1212;139806;-64
2024/04/13 03:27:03;;;;;;;6.20;4.80;;;;;;;14.37;72.00;101531.65;111545;1212;100434;-65
2024/04/13 03:29:29;;;;;;;10.20;5.30;;;;;;;14.36;72.07;101527.05;111435;1212;139314;-64
2024/04/13 03:31:54;;;;;;;10.90;5.70;;;;;;;14.35;72.27;101523.15;111605;1212;100070;-65
2024/04/13 03:34:19;;;;;;;8.80;5.30;;;;;;;14.32;72.26;101523.10;111609;1212;100688;-64
2024/04/13 03:36:45;;;;;;;7.40;5.30;;;;;;;14.29;72.29;101521.76;111484;1219;138965;-64
2024/04/13 03:39:10;;;;;;;7.10;5.60;;;;;;;14.26;72.34;101525.86;111607;1211;99560;-65
2024/04/13 03:41:36;;;;;;;9.10;6.10;;;;;;;14.24;72.47;101525.60;111466;1212;139229;-64
2024/04/13 03:44:01;;;;;;;10.50;6.40;;;;;;;14.20;72.35;101526.34;111530;1212;100315;-65
2024/04/13 03:46:26;;;;;;;9.60;5.60;;;;;;;14.12;72.54;101529.19;111559;1212;100407;-64
2024/04/13 03:48:53;;;;;;;9.40;6.40;;;;;;;14.09;72.75;101526.42;111479;1207;139394;-64
2024/04/13 03:51:18;;;;;;;11.00;5.70;;;;;;;14.08;72.87;101523.45;111568;1206;100309;-64
2024/04/13 03:53:44;;;;;;;8.50;5.40;;;;;;;14.05;72.76;101523.73;111482;1212;140154;-65
2024/04/13 03:56:09;;;;;;;11.20;6.60;;;;;;;14.02;72.91;101519.20;111548;1211;100880;-64
2024/04/13 03:58:35;;;;;;;7.90;5.40;;;;;;;13.99;72.99;101520.59;111685;1212;100519;-64
2024/04/13 04:01:01;;;;;;;8.60;5.70;;;;;;;13.97;73.11;101517.41;111456;1211;139609;-64
2024/04/13 04:03:26;;;;;;;9.90;5.60;;;;;;;13.97;73.25;101519.41;111539;1211;100293;-64
2024/04/13 04:05:56;;;;;;;8.10;5.60;;;;;;;13.96;73.19;101520.19;111531;1206;140456;-65
2024/04/13 04:08:21;;;;;;;8.00;5.50;;;;;;;13.92;73.26;101525.20;111541;1212;100318;-64
2024/04/13 04:10:47;;;;;;;9.00;5.80;;;;;;;13.87;73.44;101518.02;111577;1211;100421;-64
2024/04/13 04:13:13;;;;;;;14.70;6.00;;;;;;;13.85;73.54;101523.89;111441;1218;139825;-65
2024/04/13 04:15:38;;;;;;;10.50;6.20;;;;;;;13.84;73.60;101517.98;111596;1206;100417;-65
2024/04/13 04:18:04;;;;;;;7.90;5.80;;;;;;;13.82;73.60;101516.31;111519;1211;139210;-64
2024/04/13 04:20:33;;;;;;;11.20;5.90;;;;;;;13.79;73.69;101519.50;111614;1212;100360;-64
2024/04/13 04:22:58;;;;;;;8.90;5.80;;;;;;;13.78;73.89;101521.69;111600;1218;100810;-64
2024/04/13 04:25:24;;;;;;;11.50;6.00;;;;;;;13.78;73.97;101525.98;111452;1210;139243;-64
2024/04/13 04:27:49;;;;;;;12.40;6.50;;;;;;;13.79;74.04;101526.67;111611;1211;100440;-64
2024/04/13 04:30:15;;;;;;;7.70;6.20;;;;;;;13.76;74.01;101524.27;111464;1211;139398;-64
2024/04/13 04:32:41;;;;;;;10.40;6.20;;;;;;;13.74;74.04;101523.82;111600;1212;100681;-64
2024/04/13 04:35:06;;;;;;;11.10;6.70;;;;;;;13.70;74.10;101521.46;111648;1206;100435;-64
2024/04/13 04:37:31;;;;;;;15.30;5.50;;;;;;;13.66;74.11;101518.08;111181;1210;141402;-64
2024/04/13 04:39:57;;;;;;;14.80;5.70;;;;;;;13.67;74.38;101515.86;111670;1206;100392;-64
2024/04/13 04:42:24;;;;;;;10.40;5.30;;;;;;;13.68;74.44;101518.34;111427;1213;139136;-64
2024/04/13 04:44:49;;;;;;;7.10;5.20;;;;;;;13.70;74.44;101517.02;111588;1206;99287;-65
2024/04/13 04:47:14;;;;;;;8.30;5.50;;;;;;;13.71;74.62;101520.55;111593;1210;100347;-64
2024/04/13 04:49:39;;;;;;;10.50;5.10;;;;;;;13.70;74.61;101520.05;111478;1206;139152;-65
2024/04/13 04:52:06;;;;;;;7.90;5.80;;;;;;;13.68;74.68;101519.23;111595;1210;102382;-66
2024/04/13 04:54:31;;;;;;;11.10;6.20;;;;;;;13.68;74.74;101520.15;111551;1212;140166;-65
2024/04/13 04:56:57;;;;;;;11.50;5.10;;;;;;;13.65;74.73;101523.13;111618;1212;100279;-65
2024/04/13 04:59:22;;;;;;;11.90;5.80;;;;;;;13.61;74.75;101518.10;111404;1211;141564;-65
2024/04/13 05:01:47;;;;;;;9.40;5.90;;;;;;;13.59;74.85;101523.21;111597;1206;100464;-65
2024/04/13 05:04:12;;;;;;;10.10;5.60;;;;;;;13.57;75.00;101525.06;111433;1218;100283;-65
2024/04/13 05:06:37;;;;;;;15.60;6.00;;;;;;;13.57;75.02;101524.38;111482;1206;139240;-65
2024/04/13 05:09:04;;;;;;;7.90;5.00;;;;;;;13.55;75.06;101533.97;111483;1212;100295;-65
2024/04/13 05:11:29;;;;;;;8.90;5.60;;;;;;;13.52;75.07;101534.08;111358;1206;139978;-64
2024/04/13 05:13:55;;;;;;;9.00;5.70;;;;;;;13.50;75.19;101537.42;111566;1212;100413;-66
2024/04/13 05:16:20;;;;;;;7.90;5.00;;;;;;;13.47;75.39;101533.78;111499;1206;100421;-66
2024/04/13 05:18:46;;;;;;;11.60;5.90;;;;;;;13.48;75.47;101526.55;111481;1206;139298;-65
2024/04/13 05:21:11;;;;;;;8.80;5.40;;;;;;;13.49;75.61;101523.27;111483;1206;107408;-66
2024/04/13 05:23:37;;;;;;;8.10;5.40;;;;;;;13.49;75.56;101521.27;111451;1206;140379;-67
2024/04/13 05:26:02;;;;;;;12.00;6.30;;;;;;;13.49;75.64;101525.60;111611;1212;100357;-66
2024/04/13 05:28:27;;;;;;;10.00;5.10;;;;;;;13.50;75.73;101525.76;111303;1212;100805;-66
2024/04/13 05:30:56;;;;;;;7.30;5.20;;;;;;;13.51;75.70;101523.73;111508;1211;139947;-67
2024/04/13 05:33:23;;;;;;;7.20;4.90;;;;;;;13.51;75.89;101530.02;111652;1210;100436;-66
2024/04/13 05:35:49;;;;;;;9.70;6.00;;;;;;;13.50;75.91;101531.13;111566;1207;139989;-67
2024/04/13 05:38:14;;;;;;;10.60;6.00;;;;;;;13.50;76.00;101530.41;111560;1206;100308;-68
2024/04/13 05:40:39;;;;;;;14.50;5.50;;;;;;;13.51;76.12;101530.91;111591;1211;100309;-70
2024/04/13 05:43:05;;;;;;;11.30;6.10;;;;;;;13.53;76.17;101530.80;111525;1207;139289;-68
2024/04/13 05:45:31;;;;;;;8.60;5.80;;;;;;;13.56;76.33;101534.30;111609;1206;100389;-68
2024/04/13 05:47:56;;;;;;;6.20;5.10;;;;;;;13.57;76.33;101534.77;111464;1212;139868;-66
2024/04/13 05:50:22;;;;;;;7.50;5.20;;;;;;;13.58;76.31;101533.28;111554;1206;100436;-65
2024/04/13 05:52:47;;;;;;;10.50;5.90;;;;;;;13.57;76.42;101524.90;111679;1206;101387;-65
2024/04/13 05:55:13;;;;;;;8.20;5.80;;;;;;;13.58;76.51;101529.02;111440;1206;139320;-67
2024/04/13 05:57:38;;;;;;;15.60;7.00;;;;;;;13.60;76.66;101533.75;111646;1206;101245;-67
2024/04/13 06:00:09;;;;;;;8.50;5.80;;;;;;;13.61;76.67;101530.46;111459;1211;139516;-66
2024/04/13 06:02:34;;;;;;;9.70;6.00;;;;;;;13.63;76.72;101528.42;111571;1210;113809;-66
2024/04/13 06:05:00;;;;;;;13.20;6.50;;;;;;;13.64;76.84;101530.34;111588;1206;100411;-67
2024/04/13 06:07:25;;;;;;;9.90;5.90;;;;;;;13.67;76.94;101531.14;111345;1209;139686;-68
2024/04/13 06:09:50;;;;;;;10.60;5.90;;;;;;;13.72;77.09;101531.44;111577;1206;100451;-67
2024/04/13 06:12:15;;;;;;;9.40;6.30;;;;;;;13.76;77.12;101538.84;111524;1211;140371;-67
2024/04/13 06:14:41;;;;;;;16.30;7.20;;;;;;;13.79;77.24;101540.32;111578;1218;100363;-68
2024/04/13 06:17:06;;;;;;;10.80;6.90;;;;;;;13.83;77.28;101551.47;111575;1209;100367;-67
2024/04/13 06:19:32;;;;;;;11.90;6.50;;;;;;;13.86;77.31;101545.04;111548;1206;139702;-69
2024/04/13 06:21:57;;;;;;;10.20;6.40;;;;;;;13.91;77.40;101552.91;111565;1212;100319;-68
2024/04/13 06:24:22;;;;;;;12.60;7.30;;;;;;;13.96;77.44;101555.41;111473;1209;139111;-67
2024/04/13 06:26:47;;;;;;;8.10;6.30;;;;;;;14.00;77.55;101543.75;111613;1206;100439;-68
2024/04/13 06:29:12;;;;;;;24.80;7.60;;;;;;;14.04;77.52;101551.10;111630;1212;100025;-68
2024/04/13 06:31:38;;;;;;;14.10;7.50;;;;;;;14.09;77.58;101548.76;111427;1206;138936;-67
2024/04/13 06:34:03;;;;;;;12.70;6.90;;;;;;;14.13;77.67;101548.23;111568;1206;100399;-68
2024/04/13 06:36:28;;;;;;;15.10;7.30;;;;;;;14.19;77.85;101546.14;111456;1212;139185;-68
2024/04/13 06:38:54;;;;;;;12.30;7.30;;;;;;;14.26;77.82;101546.52;111518;1212;100351;-68
2024/04/13 06:41:19;;;;;;;9.20;6.40;;;;;;;14.32;77.83;101547.70;111394;1207;140498;-67
2024/04/13 06:43:45;;;;;;;9.70;6.80;;;;;;;14.38;77.91;101539.16;111564;1210;100340;-67
2024/04/13 06:46:10;;;;;;;11.50;7.10;;;;;;;14.43;77.91;101551.38;111508;1211;100322;-68
2024/04/13 06:48:35;;;;;;;13.70;7.60;;;;;;;14.46;77.95;101539.94;111541;1206;139227;-68
2024/04/13 06:51:01;;;;;;;10.60;7.50;;;;;;;14.50;77.97;101537.94;111531;1212;100366;-68
2024/04/13 06:53:27;;;;;;;15.70;7.50;;;;;;;14.56;78.10;101530.09;111437;1206;140414;-67
2024/04/13 06:55:53;;;;;;;11.70;7.20;;;;;;;14.64;78.15;101536.23;111568;1213;101406;-67
2024/04/13 06:58:23;;;;;;;12.00;8.20;;;;;;;14.69;78.16;101534.55;111469;1206;100723;-68
2024/04/13 07:00:58;;;;;;;11.00;7.30;;;;;;;14.72;78.10;101534.25;111439;1211;139100;-68
2024/04/13 07:03:23;;;;;;;18.70;8.30;;;;;;;14.74;78.04;101535.39;111488;1211;100815;-68
2024/04/13 07:05:59;;;;;;;11.40;7.60;;;;;;;14.76;78.08;101532.05;111398;1210;140269;-68
2024/04/13 07:08:27;;;;;;;11.30;7.90;;;;;;;14.79;78.21;101530.10;111546;1209;100050;-67
2024/04/13 07:10:53;;;;;;;18.80;7.50;;;;;;;14.83;78.19;101519.69;111580;1211;107508;-67
2024/04/13 07:13:19;;;;;;;33.50;9.60;;;;;;;14.87;78.14;101532.60;111383;1206;139285;-68
2024/04/13 07:15:47;;;;;;;10.40;7.60;;;;;;;14.88;78.07;101521.78;111523;1206;102960;-67
2024/04/13 07:18:14;;;;;;;17.70;7.50;;;;;;;14.89;78.03;101531.46;111312;1206;139730;-68
2024/04/13 07:20:42;;;;;;;11.60;6.90;;;;;;;14.89;77.98;101519.04;111472;1209;99719;-68
2024/04/13 07:23:08;;;;;;;12.70;7.20;;;;;;;14.90;77.93;101524.93;111417;1212;100408;-68
2024/04/13 07:25:33;;;;;;;15.70;6.40;;;;;;;14.94;77.88;101522.93;111125;1211;139479;-67
2024/04/13 07:27:58;;;;;;;17.10;6.00;;;;;;;14.98;77.70;101518.27;111483;1211;100427;-67
2024/04/13 07:30:23;;;;;;;11.30;5.10;;;;;;;15.06;77.57;101520.21;111357;1206;141892;-67
2024/04/13 07:32:48;;;;;;;16.80;5.30;;;;;;;15.13;77.29;101530.48;111643;1211;100302;-67
2024/04/13 07:35:14;;;;;;;12.90;4.70;;;;;;;15.18;77.04;101532.77;111500;1210;100389;-66
2024/04/13 07:37:39;;;;;;;12.00;5.20;;;;;;;15.21;76.74;101536.73;111485;1206;139211;-69
2024/04/13 07:40:05;;;;;;;13.80;5.00;;;;;;;15.24;76.39;101515.71;111526;1206;100567;-69
2024/04/13 07:42:30;;;;;;;13.70;5.60;;;;;;;15.30;76.22;101526.77;111381;1211;139776;-69
2024/04/13 07:44:57;;;;;;;11.50;4.90;;;;;;;15.36;75.91;101522.17;111592;1206;100400;-66
2024/04/13 07:47:22;;;;;;;10.30;4.80;;;;;;;15.42;75.63;101526.01;111354;1212;139516;-66
2024/04/13 07:49:47;;;;;;;17.50;4.90;;;;;;;15.50;75.43;101522.55;111513;1206;100324;-67
2024/04/13 07:52:12;;;;;;;13.60;4.70;;;;;;;15.53;75.08;101526.85;111557;1212;99153;-66
2024/04/13 07:54:37;;;;;;;16.80;4.20;;;;;;;15.57;74.71;101520.23;111396;1206;139559;-67
2024/04/13 07:57:03;;;;;;;15.60;3.90;;;;;;;15.57;74.42;101520.21;111578;1212;100306;-66
2024/04/13 07:59:28;;;;;;;10.40;3.90;;;;;;;15.60;74.24;101528.52;111365;1206;139728;-67
2024/04/13 08:01:53;;;;;;;7.90;3.60;;;;;;;15.65;74.03;101514.95;111618;1211;100449;-67
2024/04/13 08:04:19;;;;;;;8.00;4.20;;;;;;;15.69;73.62;101526.08;111495;1206;100677;-67
2024/04/13 08:06:45;;;;;;;16.10;4.40;;;;;;;15.70;73.29;101522.98;111440;1211;138324;-67
2024/04/13 08:09:10;;;;;;;17.00;3.80;;;;;;;15.72;73.04;101526.66;111528;1212;100353;-67
2024/04/13 08:11:35;;;;;;;11.00;3.60;;;;;;;15.74;72.86;101524.21;111379;1211;141022;-67
2024/04/13 08:14:02;;;;;;;32.10;5.10;;;;;;;15.76;72.68;101508.57;111575;1206;100786;-66
2024/04/13 08:16:27;;;;;;;8.70;3.50;;;;;;;15.82;72.52;101517.65;111473;1206;100809;-67
2024/04/13 08:18:52;;;;;;;11.70;3.30;;;;;;;15.91;72.33;101519.92;111396;1212;138927;-67
2024/04/13 08:21:17;;;;;;;11.20;3.30;;;;;;;16.00;71.94;101530.46;111562;1206;100419;-67
2024/04/13 08:23:43;;;;;;;17.60;3.80;;;;;;;16.06;71.75;101519.31;111457;1210;138928;-67
2024/04/13 08:26:08;;;;;;;20.60;3.40;;;;;;;16.13;71.56;101518.59;111575;1206;100035;-67
2024/04/13 08:28:33;;;;;;;11.10;3.10;;;;;;;16.19;71.12;101506.20;111548;1211;100417;-67
2024/04/13 08:31:03;;;;;;;15.20;3.10;;;;;;;16.24;71.02;101518.35;111470;1212;139456;-67
2024/04/13 08:33:28;;;;;;;8.60;3.20;;;;;;;16.28;70.42;101506.25;111545;1206;100686;-67
2024/04/13 08:36:01;;;;;;;15.90;3.40;;;;;;;16.31;70.19;101502.12;111447;1208;139473;-67
2024/04/13 08:38:26;;;;;;;14.10;3.00;;;;;;;16.35;69.97;101506.75;111503;1206;100318;-67
2024/04/13 08:40:51;;;;;;;10.20;3.60;;;;;;;16.39;69.61;101504.73;111535;1206;100374;-67
2024/04/13 08:43:17;;;;;;;14.90;3.90;;;;;;;16.43;69.36;101507.75;111435;1211;138781;-67
2024/04/13 08:45:43;;;;;;;8.40;3.50;;;;;;;16.47;69.13;101510.79;111551;1207;100270;-67
2024/04/13 08:48:08;;;;;;;10.00;3.20;;;;;;;16.49;68.79;101510.49;111463;1209;139363;-67
2024/04/13 08:50:35;;;;;;;6.70;2.80;;;;;;;16.53;68.70;101512.63;111518;1206;100360;-67
2024/04/13 08:53:05;;;;;;;9.70;3.00;;;;;;;16.61;68.75;101518.20;111590;1206;100344;-67
2024/04/13 08:55:37;;;;;;;8.90;2.70;;;;;;;16.69;68.65;101516.32;111389;1211;138568;-67
2024/04/13 08:58:03;;;;;;;11.90;2.90;;;;;;;16.78;68.31;101517.05;111489;1206;99296;-67
2024/04/13 09:00:32;;;;;;;7.50;2.50;;;;;;;16.84;68.09;101519.05;111294;1206;138287;-67
2024/04/13 09:02:58;;;;;;;11.30;2.50;;;;;;;16.91;67.87;101519.60;111512;1210;100749;-67
2024/04/13 09:05:27;;;;;;;11.80;3.20;;;;;;;16.96;67.61;101526.17;111430;1211;139167;-67
2024/04/13 09:07:55;;;;;;;5.70;3.00;;;;;;;16.98;67.21;101520.67;111580;1206;113762;-67
2024/04/13 09:10:22;;;;;;;11.70;3.40;;;;;;;16.98;66.97;101517.78;111587;1210;100714;-67
2024/04/13 09:12:47;;;;;;;12.10;2.90;;;;;;;17.00;66.76;101523.58;111434;1210;139637;-67
2024/04/13 09:15:13;;;;;;;9.80;2.90;;;;;;;17.04;66.59;101524.84;111614;1211;100256;-67
2024/04/13 09:17:38;;;;;;;11.60;3.20;;;;;;;17.05;66.32;101526.23;111396;1211;138496;-67
2024/04/13 09:20:08;;;;;;;13.60;2.90;;;;;;;17.06;66.03;101526.86;111592;1211;101292;-67
2024/04/13 09:22:38;;;;;;;11.90;3.30;;;;;;;17.09;65.86;101525.98;111541;1210;100340;-67
2024/04/13 09:25:04;;;;;;;5.40;2.60;;;;;;;17.11;65.73;101503.84;111447;1211;138642;-67
2024/04/13 09:27:30;;;;;;;9.00;3.20;;;;;;;17.14;65.54;101503.45;111474;1211;100315;-67
2024/04/13 09:30:06;;;;;;;8.40;2.70;;;;;;;17.19;65.39;101507.14;111524;1206;142080;-67
2024/04/13 09:32:32;;;;;;;10.80;2.60;;;;;;;17.25;65.37;101504.30;111580;1212;111476;-67
2024/04/13 09:35:17;;;;;;;12.40;3.00;;;;;;;17.29;65.18;101491.79;111565;1206;100480;-67
2024/04/13 09:37:43;;;;;;;16.00;2.60;;;;;;;17.37;65.08;101487.34;111620;1209;100409;-67
2024/04/13 09:40:10;;;;;;;5.60;2.20;;;;;;;17.43;64.78;101481.00;111547;1210;100381;-68
2024/04/13 09:42:36;;;;;;;9.90;2.50;;;;;;;17.51;64.74;101489.59;111467;1209;138630;-67
2024/04/13 09:45:11;;;;;;;9.00;2.40;;;;;;;17.58;64.64;101488.46;111646;1208;100836;-67
2024/04/13 09:47:39;;;;;;;6.30;2.60;;;;;;;17.63;64.38;101487.27;111520;1205;138613;-68
2024/04/13 09:50:05;;;;;;;7.80;2.50;;;;;;;17.65;64.16;101475.55;111603;1210;102972;-67
2024/04/13 09:52:34;;;;;;;9.30;2.50;;;;;;;17.69;64.16;101475.17;111615;1209;100588;-67
2024/04/13 09:55:00;;;;;;;8.90;2.10;;;;;;;17.73;64.06;101474.95;111455;1209;138525;-67
2024/04/13 09:57:26;;;;;;;11.50;2.60;;;;;;;17.75;63.84;101479.71;111571;1211;100381;-67
2024/04/13 09:59:52;;;;;;;16.90;2.60;;;;;;;17.76;63.61;101475.80;111545;1206;138796;-67
2024/04/13 10:02:18;;;;;;;5.40;2.10;;;;;;;17.81;63.30;101471.90;111495;1209;100396;-67
2024/04/13 10:04:45;;;;;;;22.30;2.30;;;;;;;17.86;63.28;101464.20;111547;1210;100562;-67
2024/04/13 10:07:11;;;;;;;5.20;2.20;;;;;;;17.91;63.15;101474.92;111388;1209;139438;-68
2024/04/13 10:09:55;;;;;;;9.50;2.60;;;;;;;17.97;62.95;101475.66;111680;1206;100782;-67
2024/04/13 10:12:25;;;;;;;13.90;2.20;;;;;;;18.00;62.65;101481.42;111411;1209;138709;-67
2024/04/13 10:14:52;;;;;;;5.40;2.00;;;;;;;18.02;62.39;101493.79;111616;1212;100341;-67
2024/04/13 10:17:19;;;;;;;8.30;2.40;;;;;;;18.01;62.15;101480.29;111519;1205;138577;-68
2024/04/13 10:19:45;;;;;;;7.20;2.00;;;;;;;18.03;61.96;101469.34;111578;1205;100356;-68
2024/04/13 10:22:11;;;;;;;9.90;2.00;;;;;;;18.07;61.72;101468.16;111711;1209;101617;-68
2024/04/13 10:24:43;;;;;;;6.30;1.90;;;;;;;18.12;61.60;101457.32;111410;1211;138548;-68
2024/04/13 10:27:11;;;;;;;5.60;1.80;;;;;;;18.18;61.32;101460.45;111563;1209;100381;-68
2024/04/13 10:29:43;;;;;;;6.50;1.70;;;;;;;18.24;61.34;101451.88;111454;1206;139296;-67
2024/04/13 10:32:22;;;;;;;10.60;2.10;;;;;;;18.33;60.99;101445.52;111565;1209;100322;-68
2024/04/13 10:34:51;;;;;;;3.00;1.60;;;;;;;18.39;60.73;101440.94;111615;1206;100292;-67
2024/04/13 10:37:28;;;;;;;6.50;1.70;;;;;;;18.44;60.60;101446.05;111411;1206;138337;-68
2024/04/13 10:39:58;;;;;;;9.70;1.60;;;;;;;18.53;60.44;101455.08;111563;1209;100159;-68
2024/04/13 10:42:37;;;;;;;14.10;2.40;;;;;;;18.62;60.26;101453.13;111341;1206;139015;-67
2024/04/13 10:45:09;;;;;;;7.30;2.20;;;;;;;18.68;59.93;101442.91;111583;1209;100236;-67
2024/04/13 10:47:34;;;;;;;5.50;1.50;;;;;;;18.76;59.77;101445.10;111451;1209;140174;-67
2024/04/13 10:50:00;;;;;;;8.30;2.20;;;;;;;18.84;59.69;101436.67;111568;1209;100411;-67
2024/04/13 10:52:26;;;;;;;5.30;1.80;;;;;;;18.93;59.62;101445.80;111600;1206;100529;-67
2024/04/13 10:54:57;;;;;;;50.70;5.00;;;;;;;19.05;59.38;101425.13;111486;1209;138483;-67
2024/04/13 10:57:23;;;;;;;6.10;2.20;;;;;;;19.17;59.38;101421.44;111524;1206;100323;-68
2024/04/13 10:59:49;;;;;;;10.10;2.00;;;;;;;19.28;59.20;101427.39;111606;1205;139449;-67
2024/04/13 11:02:14;;;;;;;23.50;2.90;;;;;;;19.35;58.89;101426.55;111638;1205;100286;-68
2024/04/13 11:04:46;;;;;;;16.90;3.60;;;;;;;19.38;58.65;101437.38;111623;1209;100412;-67